sensor_id;sensor_type;location;lat;lon;timestamp;P1;durP1;ratioP1;P2;durP2;ratioP2
36931;SDS011;22847;42.654;23.370;2023-06-19T00:01:42;5.10;;;4.60;;
36931;SDS011;22847;42.654;23.370;2023-06-19T00:04:09;10.45;;;4.13;;
36931;SDS011;22847;42.654;23.370;2023-06-19T00:06:34;6.10;;;4.65;;
36931;SDS011;22847;42.654;23.370;2023-06-19T00:09:00;5.85;;;4.35;;
36931;SDS011;22847;42.654;23.370;2023-06-19T00:11:25;5.20;;;4.50;;
36931;SDS011;22847;42.654;23.370;2023-06-19T00:13:51;5.97;;;4.75;;
36931;SDS011;22847;42.654;23.370;2023-06-19T00:16:17;5.90;;;4.55;;
36931;SDS011;22847;42.654;23.370;2023-06-19T00:18:44;7.13;;;4.53;;
36931;SDS011;22847;42.654;23.370;2023-06-19T00:21:10;6.45;;;4.38;;
36931;SDS011;22847;42.654;23.370;2023-06-19T00:23:35;10.52;;;4.85;;
36931;SDS011;22847;42.654;23.370;2023-06-19T00:26:00;7.13;;;4.43;;
36931;SDS011;22847;42.654;23.370;2023-06-19T00:28:29;7.28;;;4.82;;
36931;SDS011;22847;42.654;23.370;2023-06-19T00:30:55;4.82;;;4.20;;
36931;SDS011;22847;42.654;23.370;2023-06-19T00:33:21;6.97;;;4.68;;
36931;SDS011;22847;42.654;23.370;2023-06-19T00:35:47;6.97;;;4.93;;
36931;SDS011;22847;42.654;23.370;2023-06-19T00:38:16;4.90;;;4.28;;
36931;SDS011;22847;42.654;23.370;2023-06-19T00:40:41;9.25;;;4.72;;
36931;SDS011;22847;42.654;23.370;2023-06-19T00:43:07;12.88;;;4.80;;
36931;SDS011;22847;42.654;23.370;2023-06-19T00:45:32;6.90;;;4.65;;
36931;SDS011;22847;42.654;23.370;2023-06-19T00:47:58;5.75;;;4.40;;
36931;SDS011;22847;42.654;23.370;2023-06-19T00:50:24;7.05;;;5.03;;
36931;SDS011;22847;42.654;23.370;2023-06-19T00:52:52;6.32;;;4.50;;
36931;SDS011;22847;42.654;23.370;2023-06-19T00:55:18;6.97;;;4.63;;
36931;SDS011;22847;42.654;23.370;2023-06-19T00:57:44;6.97;;;4.75;;
36931;SDS011;22847;42.654;23.370;2023-06-19T01:00:10;7.13;;;4.63;;
36931;SDS011;22847;42.654;23.370;2023-06-19T01:02:37;6.60;;;4.80;;
36931;SDS011;22847;42.654;23.370;2023-06-19T01:05:03;6.88;;;4.68;;
36931;SDS011;22847;42.654;23.370;2023-06-19T01:10:34;6.80;;;5.45;;
36931;SDS011;22847;42.654;23.370;2023-06-19T01:15:34;7.90;;;5.07;;
36931;SDS011;22847;42.654;23.370;2023-06-19T01:18:00;6.18;;;5.07;;
36931;SDS011;22847;42.654;23.370;2023-06-19T01:20:27;6.15;;;4.82;;
36931;SDS011;22847;42.654;23.370;2023-06-19T01:22:53;6.10;;;4.57;;
36931;SDS011;22847;42.654;23.370;2023-06-19T01:25:21;8.73;;;4.70;;
36931;SDS011;22847;42.654;23.370;2023-06-19T01:27:48;9.13;;;4.60;;
36931;SDS011;22847;42.654;23.370;2023-06-19T01:30:13;4.78;;;3.88;;
36931;SDS011;22847;42.654;23.370;2023-06-19T01:35:29;5.35;;;4.45;;
36931;SDS011;22847;42.654;23.370;2023-06-19T01:37:57;7.90;;;4.78;;
36931;SDS011;22847;42.654;23.370;2023-06-19T01:40:25;7.43;;;4.40;;
36931;SDS011;22847;42.654;23.370;2023-06-19T01:42:53;8.18;;;4.63;;
36931;SDS011;22847;42.654;23.370;2023-06-19T01:45:19;7.75;;;4.93;;
36931;SDS011;22847;42.654;23.370;2023-06-19T01:47:45;9.90;;;5.05;;
36931;SDS011;22847;42.654;23.370;2023-06-19T01:50:11;6.43;;;4.93;;
36931;SDS011;22847;42.654;23.370;2023-06-19T01:52:39;6.72;;;5.00;;
36931;SDS011;22847;42.654;23.370;2023-06-19T01:55:06;6.47;;;5.05;;
36931;SDS011;22847;42.654;23.370;2023-06-19T01:57:32;9.98;;;5.07;;
36931;SDS011;22847;42.654;23.370;2023-06-19T01:59:58;7.50;;;4.13;;
36931;SDS011;22847;42.654;23.370;2023-06-19T02:02:23;6.50;;;4.80;;
36931;SDS011;22847;42.654;23.370;2023-06-19T02:04:49;7.00;;;4.95;;
36931;SDS011;22847;42.654;23.370;2023-06-19T02:07:14;5.78;;;4.60;;
36931;SDS011;22847;42.654;23.370;2023-06-19T02:09:40;5.72;;;4.50;;
36931;SDS011;22847;42.654;23.370;2023-06-19T02:12:06;8.20;;;4.68;;
36931;SDS011;22847;42.654;23.370;2023-06-19T02:14:32;7.20;;;5.15;;
36931;SDS011;22847;42.654;23.370;2023-06-19T02:16:57;10.43;;;5.18;;
36931;SDS011;22847;42.654;23.370;2023-06-19T02:19:23;10.63;;;5.40;;
36931;SDS011;22847;42.654;23.370;2023-06-19T02:21:48;11.30;;;5.20;;
36931;SDS011;22847;42.654;23.370;2023-06-19T02:24:14;8.30;;;5.07;;
36931;SDS011;22847;42.654;23.370;2023-06-19T02:26:39;10.18;;;5.07;;
36931;SDS011;22847;42.654;23.370;2023-06-19T02:29:04;6.40;;;5.05;;
36931;SDS011;22847;42.654;23.370;2023-06-19T02:31:30;8.50;;;5.10;;
36931;SDS011;22847;42.654;23.370;2023-06-19T02:33:56;7.60;;;5.38;;
36931;SDS011;22847;42.654;23.370;2023-06-19T02:36:21;9.75;;;5.50;;
36931;SDS011;22847;42.654;23.370;2023-06-19T02:38:47;17.55;;;5.07;;
36931;SDS011;22847;42.654;23.370;2023-06-19T02:41:12;8.13;;;5.38;;
36931;SDS011;22847;42.654;23.370;2023-06-19T02:43:39;5.82;;;5.03;;
36931;SDS011;22847;42.654;23.370;2023-06-19T02:46:06;11.90;;;5.47;;
36931;SDS011;22847;42.654;23.370;2023-06-19T02:48:31;9.60;;;5.30;;
36931;SDS011;22847;42.654;23.370;2023-06-19T02:50:57;6.38;;;4.70;;
36931;SDS011;22847;42.654;23.370;2023-06-19T02:53:22;8.55;;;5.32;;
36931;SDS011;22847;42.654;23.370;2023-06-19T02:55:48;6.53;;;5.32;;
36931;SDS011;22847;42.654;23.370;2023-06-19T02:58:13;9.48;;;5.50;;
36931;SDS011;22847;42.654;23.370;2023-06-19T03:00:38;7.93;;;5.60;;
36931;SDS011;22847;42.654;23.370;2023-06-19T03:03:04;13.52;;;6.03;;
36931;SDS011;22847;42.654;23.370;2023-06-19T03:05:30;10.77;;;6.05;;
36931;SDS011;22847;42.654;23.370;2023-06-19T03:07:56;11.63;;;6.38;;
36931;SDS011;22847;42.654;23.370;2023-06-19T03:10:21;7.45;;;5.47;;
36931;SDS011;22847;42.654;23.370;2023-06-19T03:12:47;15.98;;;6.97;;
36931;SDS011;22847;42.654;23.370;2023-06-19T03:15:12;10.52;;;6.07;;
36931;SDS011;22847;42.654;23.370;2023-06-19T03:17:38;8.63;;;6.50;;
36931;SDS011;22847;42.654;23.370;2023-06-19T03:20:03;16.42;;;7.07;;
36931;SDS011;22847;42.654;23.370;2023-06-19T03:22:30;11.52;;;6.43;;
36931;SDS011;22847;42.654;23.370;2023-06-19T03:24:56;9.07;;;5.82;;
36931;SDS011;22847;42.654;23.370;2023-06-19T03:27:22;15.00;;;6.95;;
36931;SDS011;22847;42.654;23.370;2023-06-19T03:29:49;16.08;;;7.25;;
36931;SDS011;22847;42.654;23.370;2023-06-19T03:32:15;10.95;;;6.97;;
36931;SDS011;22847;42.654;23.370;2023-06-19T03:34:41;13.80;;;7.03;;
36931;SDS011;22847;42.654;23.370;2023-06-19T03:37:07;16.38;;;7.88;;
36931;SDS011;22847;42.654;23.370;2023-06-19T03:39:32;15.38;;;7.18;;
36931;SDS011;22847;42.654;23.370;2023-06-19T03:41:58;11.23;;;6.78;;
36931;SDS011;22847;42.654;23.370;2023-06-19T03:44:23;13.63;;;7.10;;
36931;SDS011;22847;42.654;23.370;2023-06-19T03:46:48;16.38;;;9.55;;
36931;SDS011;22847;42.654;23.370;2023-06-19T03:49:15;14.93;;;7.03;;
36931;SDS011;22847;42.654;23.370;2023-06-19T03:51:41;11.02;;;7.63;;
36931;SDS011;22847;42.654;23.370;2023-06-19T03:54:06;13.05;;;6.65;;
36931;SDS011;22847;42.654;23.370;2023-06-19T03:56:31;16.38;;;8.82;;
36931;SDS011;22847;42.654;23.370;2023-06-19T03:58:57;15.13;;;9.48;;
36931;SDS011;22847;42.654;23.370;2023-06-19T04:01:22;12.02;;;6.97;;
36931;SDS011;22847;42.654;23.370;2023-06-19T04:03:47;15.40;;;9.77;;
36931;SDS011;22847;42.654;23.370;2023-06-19T04:06:13;17.63;;;10.77;;
36931;SDS011;22847;42.654;23.370;2023-06-19T04:08:38;13.18;;;8.88;;
36931;SDS011;22847;42.654;23.370;2023-06-19T04:11:04;12.52;;;8.73;;
36931;SDS011;22847;42.654;23.370;2023-06-19T04:13:29;12.27;;;7.10;;
36931;SDS011;22847;42.654;23.370;2023-06-19T04:15:55;11.00;;;7.13;;
36931;SDS011;22847;42.654;23.370;2023-06-19T04:18:20;11.85;;;6.97;;
36931;SDS011;22847;42.654;23.370;2023-06-19T04:20:45;16.00;;;8.85;;
36931;SDS011;22847;42.654;23.370;2023-06-19T04:23:11;14.85;;;6.88;;
36931;SDS011;22847;42.654;23.370;2023-06-19T04:25:36;10.05;;;6.32;;
36931;SDS011;22847;42.654;23.370;2023-06-19T04:28:02;14.90;;;6.70;;
36931;SDS011;22847;42.654;23.370;2023-06-19T04:30:28;14.20;;;7.03;;
36931;SDS011;22847;42.654;23.370;2023-06-19T04:32:55;11.80;;;6.10;;
36931;SDS011;22847;42.654;23.370;2023-06-19T04:35:22;15.68;;;7.78;;
36931;SDS011;22847;42.654;23.370;2023-06-19T04:37:48;9.00;;;6.20;;
36931;SDS011;22847;42.654;23.370;2023-06-19T04:40:14;11.52;;;6.50;;
36931;SDS011;22847;42.654;23.370;2023-06-19T04:42:39;15.05;;;6.45;;
36931;SDS011;22847;42.654;23.370;2023-06-19T04:45:05;8.27;;;6.20;;
36931;SDS011;22847;42.654;23.370;2023-06-19T04:47:34;13.48;;;5.80;;
36931;SDS011;22847;42.654;23.370;2023-06-19T04:50:00;11.63;;;7.53;;
36931;SDS011;22847;42.654;23.370;2023-06-19T04:52:25;14.18;;;6.55;;
36931;SDS011;22847;42.654;23.370;2023-06-19T04:54:51;12.40;;;6.18;;
36931;SDS011;22847;42.654;23.370;2023-06-19T04:57:17;15.82;;;6.53;;
36931;SDS011;22847;42.654;23.370;2023-06-19T04:59:42;13.88;;;6.43;;
36931;SDS011;22847;42.654;23.370;2023-06-19T05:02:11;13.88;;;6.55;;
36931;SDS011;22847;42.654;23.370;2023-06-19T05:04:36;10.48;;;6.60;;
36931;SDS011;22847;42.654;23.370;2023-06-19T05:07:02;11.90;;;6.30;;
36931;SDS011;22847;42.654;23.370;2023-06-19T05:09:28;12.65;;;6.20;;
36931;SDS011;22847;42.654;23.370;2023-06-19T05:11:53;15.80;;;5.93;;
36931;SDS011;22847;42.654;23.370;2023-06-19T05:14:19;13.82;;;5.97;;
36931;SDS011;22847;42.654;23.370;2023-06-19T05:16:44;8.77;;;6.38;;
36931;SDS011;22847;42.654;23.370;2023-06-19T05:19:10;10.57;;;6.25;;
36931;SDS011;22847;42.654;23.370;2023-06-19T05:21:35;8.68;;;4.85;;
36931;SDS011;22847;42.654;23.370;2023-06-19T05:24:01;9.38;;;5.65;;
36931;SDS011;22847;42.654;23.370;2023-06-19T05:26:27;6.60;;;4.68;;
36931;SDS011;22847;42.654;23.370;2023-06-19T05:28:52;9.20;;;5.18;;
36931;SDS011;22847;42.654;23.370;2023-06-19T05:31:18;9.38;;;5.68;;
36931;SDS011;22847;42.654;23.370;2023-06-19T05:33:43;6.13;;;4.75;;
36931;SDS011;22847;42.654;23.370;2023-06-19T05:36:09;8.60;;;4.75;;
36931;SDS011;22847;42.654;23.370;2023-06-19T05:38:35;12.57;;;5.30;;
36931;SDS011;22847;42.654;23.370;2023-06-19T05:41:01;7.43;;;4.53;;
36931;SDS011;22847;42.654;23.370;2023-06-19T05:43:27;6.68;;;4.60;;
36931;SDS011;22847;42.654;23.370;2023-06-19T05:45:53;8.05;;;4.75;;
36931;SDS011;22847;42.654;23.370;2023-06-19T05:48:20;8.52;;;4.97;;
36931;SDS011;22847;42.654;23.370;2023-06-19T05:50:46;8.35;;;4.85;;
36931;SDS011;22847;42.654;23.370;2023-06-19T05:53:12;7.15;;;4.75;;
36931;SDS011;22847;42.654;23.370;2023-06-19T05:55:38;7.95;;;4.93;;
36931;SDS011;22847;42.654;23.370;2023-06-19T05:58:03;6.75;;;5.55;;
36931;SDS011;22847;42.654;23.370;2023-06-19T06:00:29;9.48;;;4.82;;
36931;SDS011;22847;42.654;23.370;2023-06-19T06:02:56;7.93;;;5.18;;
36931;SDS011;22847;42.654;23.370;2023-06-19T06:05:24;15.25;;;4.75;;
36931;SDS011;22847;42.654;23.370;2023-06-19T06:07:50;6.05;;;4.20;;
36931;SDS011;22847;42.654;23.370;2023-06-19T06:10:15;9.00;;;4.80;;
36931;SDS011;22847;42.654;23.370;2023-06-19T06:12:41;7.78;;;4.85;;
36931;SDS011;22847;42.654;23.370;2023-06-19T06:15:07;8.77;;;4.75;;
36931;SDS011;22847;42.654;23.370;2023-06-19T06:17:33;12.38;;;5.25;;
36931;SDS011;22847;42.654;23.370;2023-06-19T06:19:58;12.35;;;5.60;;
36931;SDS011;22847;42.654;23.370;2023-06-19T06:22:24;8.30;;;4.72;;
36931;SDS011;22847;42.654;23.370;2023-06-19T06:24:49;8.60;;;5.70;;
36931;SDS011;22847;42.654;23.370;2023-06-19T06:27:15;12.52;;;5.50;;
36931;SDS011;22847;42.654;23.370;2023-06-19T06:29:40;8.23;;;5.07;;
36931;SDS011;22847;42.654;23.370;2023-06-19T06:32:06;4.88;;;4.38;;
36931;SDS011;22847;42.654;23.370;2023-06-19T06:34:33;5.30;;;4.63;;
36931;SDS011;22847;42.654;23.370;2023-06-19T06:36:59;6.97;;;5.00;;
36931;SDS011;22847;42.654;23.370;2023-06-19T06:39:25;8.88;;;5.38;;
36931;SDS011;22847;42.654;23.370;2023-06-19T06:41:50;6.43;;;4.60;;
36931;SDS011;22847;42.654;23.370;2023-06-19T06:44:16;10.98;;;5.53;;
36931;SDS011;22847;42.654;23.370;2023-06-19T06:46:42;6.60;;;4.78;;
36931;SDS011;22847;42.654;23.370;2023-06-19T06:49:07;8.55;;;4.88;;
36931;SDS011;22847;42.654;23.370;2023-06-19T06:51:33;8.10;;;5.65;;
36931;SDS011;22847;42.654;23.370;2023-06-19T06:53:58;9.85;;;5.35;;
36931;SDS011;22847;42.654;23.370;2023-06-19T06:56:23;7.70;;;5.20;;
36931;SDS011;22847;42.654;23.370;2023-06-19T06:58:49;6.47;;;4.63;;
36931;SDS011;22847;42.654;23.370;2023-06-19T07:01:14;8.38;;;5.30;;
36931;SDS011;22847;42.654;23.370;2023-06-19T07:03:40;8.63;;;5.05;;
36931;SDS011;22847;42.654;23.370;2023-06-19T07:06:05;8.32;;;4.50;;
36931;SDS011;22847;42.654;23.370;2023-06-19T07:08:31;8.73;;;4.53;;
36931;SDS011;22847;42.654;23.370;2023-06-19T07:10:56;5.13;;;4.40;;
36931;SDS011;22847;42.654;23.370;2023-06-19T07:13:22;6.88;;;3.95;;
36931;SDS011;22847;42.654;23.370;2023-06-19T07:15:48;5.15;;;4.55;;
36931;SDS011;22847;42.654;23.370;2023-06-19T07:18:13;8.65;;;4.22;;
36931;SDS011;22847;42.654;23.370;2023-06-19T07:20:39;6.55;;;4.15;;
36931;SDS011;22847;42.654;23.370;2023-06-19T07:23:04;5.72;;;4.78;;
36931;SDS011;22847;42.654;23.370;2023-06-19T07:25:29;8.07;;;4.57;;
36931;SDS011;22847;42.654;23.370;2023-06-19T07:27:55;8.23;;;4.60;;
36931;SDS011;22847;42.654;23.370;2023-06-19T07:30:21;5.78;;;4.50;;
36931;SDS011;22847;42.654;23.370;2023-06-19T07:32:46;6.45;;;4.72;;
36931;SDS011;22847;42.654;23.370;2023-06-19T07:35:12;8.32;;;4.72;;
36931;SDS011;22847;42.654;23.370;2023-06-19T07:37:37;10.32;;;5.40;;
36931;SDS011;22847;42.654;23.370;2023-06-19T07:40:04;9.43;;;5.32;;
36931;SDS011;22847;42.654;23.370;2023-06-19T07:42:30;7.72;;;4.10;;
36931;SDS011;22847;42.654;23.370;2023-06-19T07:44:56;8.27;;;5.38;;
36931;SDS011;22847;42.654;23.370;2023-06-19T07:47:21;11.05;;;6.03;;
36931;SDS011;22847;42.654;23.370;2023-06-19T07:49:46;10.68;;;5.50;;
36931;SDS011;22847;42.654;23.370;2023-06-19T07:52:12;7.60;;;4.50;;
36931;SDS011;22847;42.654;23.370;2023-06-19T07:59:59;10.45;;;5.47;;
36931;SDS011;22847;42.654;23.370;2023-06-19T08:02:25;6.70;;;4.63;;
36931;SDS011;22847;42.654;23.370;2023-06-19T08:04:52;14.95;;;5.90;;
36931;SDS011;22847;42.654;23.370;2023-06-19T08:07:17;10.73;;;4.65;;
36931;SDS011;22847;42.654;23.370;2023-06-19T08:09:43;8.55;;;4.32;;
36931;SDS011;22847;42.654;23.370;2023-06-19T08:12:08;8.77;;;5.07;;
36931;SDS011;22847;42.654;23.370;2023-06-19T08:14:33;5.47;;;4.03;;
36931;SDS011;22847;42.654;23.370;2023-06-19T08:16:59;9.50;;;4.00;;
36931;SDS011;22847;42.654;23.370;2023-06-19T08:19:24;5.22;;;4.38;;
36931;SDS011;22847;42.654;23.370;2023-06-19T08:21:50;8.02;;;4.07;;
36931;SDS011;22847;42.654;23.370;2023-06-19T08:24:15;5.10;;;4.10;;
36931;SDS011;22847;42.654;23.370;2023-06-19T08:26:41;6.60;;;4.03;;
36931;SDS011;22847;42.654;23.370;2023-06-19T08:29:06;7.78;;;3.67;;
36931;SDS011;22847;42.654;23.370;2023-06-19T08:31:31;7.85;;;4.13;;
36931;SDS011;22847;42.654;23.370;2023-06-19T08:33:59;7.22;;;3.55;;
36931;SDS011;22847;42.654;23.370;2023-06-19T08:36:25;6.03;;;4.80;;
36931;SDS011;22847;42.654;23.370;2023-06-19T08:38:50;7.43;;;4.22;;
36931;SDS011;22847;42.654;23.370;2023-06-19T08:41:18;7.85;;;5.07;;
36931;SDS011;22847;42.654;23.370;2023-06-19T08:43:44;6.80;;;4.97;;
36931;SDS011;22847;42.654;23.370;2023-06-19T08:46:11;7.22;;;4.95;;
36931;SDS011;22847;42.654;23.370;2023-06-19T08:48:40;5.57;;;3.63;;
36931;SDS011;22847;42.654;23.370;2023-06-19T08:51:05;6.82;;;3.92;;
36931;SDS011;22847;42.654;23.370;2023-06-19T08:53:35;7.35;;;3.65;;
36931;SDS011;22847;42.654;23.370;2023-06-19T08:56:02;5.40;;;3.40;;
36931;SDS011;22847;42.654;23.370;2023-06-19T08:58:28;4.30;;;3.35;;
36931;SDS011;22847;42.654;23.370;2023-06-19T09:00:54;4.93;;;3.92;;
36931;SDS011;22847;42.654;23.370;2023-06-19T09:03:20;7.32;;;3.85;;
36931;SDS011;22847;42.654;23.370;2023-06-19T09:05:46;5.30;;;3.70;;
36931;SDS011;22847;42.654;23.370;2023-06-19T09:08:15;6.03;;;3.72;;
36931;SDS011;22847;42.654;23.370;2023-06-19T09:10:42;4.88;;;3.85;;
36931;SDS011;22847;42.654;23.370;2023-06-19T09:13:08;9.15;;;4.82;;
36931;SDS011;22847;42.654;23.370;2023-06-19T09:15:36;7.57;;;5.28;;
36931;SDS011;22847;42.654;23.370;2023-06-19T09:18:03;6.05;;;4.80;;
36931;SDS011;22847;42.654;23.370;2023-06-19T09:20:35;10.38;;;4.60;;
36931;SDS011;22847;42.654;23.370;2023-06-19T09:23:04;9.23;;;6.45;;
36931;SDS011;22847;42.654;23.370;2023-06-19T09:25:29;7.28;;;5.10;;
36931;SDS011;22847;42.654;23.370;2023-06-19T09:27:55;6.95;;;4.95;;
36931;SDS011;22847;42.654;23.370;2023-06-19T09:30:22;8.73;;;5.25;;
36931;SDS011;22847;42.654;23.370;2023-06-19T09:32:48;5.65;;;3.92;;
36931;SDS011;22847;42.654;23.370;2023-06-19T09:35:13;7.22;;;4.47;;
36931;SDS011;22847;42.654;23.370;2023-06-19T09:37:39;6.80;;;5.20;;
36931;SDS011;22847;42.654;23.370;2023-06-19T09:40:05;6.50;;;3.90;;
36931;SDS011;22847;42.654;23.370;2023-06-19T09:42:38;5.05;;;4.00;;
36931;SDS011;22847;42.654;23.370;2023-06-19T09:45:05;13.95;;;4.13;;
36931;SDS011;22847;42.654;23.370;2023-06-19T09:47:35;8.35;;;4.28;;
36931;SDS011;22847;42.654;23.370;2023-06-19T09:50:01;6.10;;;3.90;;
36931;SDS011;22847;42.654;23.370;2023-06-19T09:52:28;6.53;;;4.15;;
36931;SDS011;22847;42.654;23.370;2023-06-19T09:54:54;4.90;;;3.70;;
36931;SDS011;22847;42.654;23.370;2023-06-19T09:57:20;9.10;;;4.30;;
36931;SDS011;22847;42.654;23.370;2023-06-19T09:59:53;6.00;;;3.83;;
36931;SDS011;22847;42.654;23.370;2023-06-19T10:02:21;7.15;;;3.83;;
36931;SDS011;22847;42.654;23.370;2023-06-19T10:04:51;5.90;;;3.63;;
36931;SDS011;22847;42.654;23.370;2023-06-19T10:07:32;6.22;;;4.35;;
36931;SDS011;22847;42.654;23.370;2023-06-19T10:12:39;8.07;;;3.85;;
36931;SDS011;22847;42.654;23.370;2023-06-19T10:15:09;5.43;;;3.63;;
36931;SDS011;22847;42.654;23.370;2023-06-19T10:17:44;6.35;;;3.85;;
36931;SDS011;22847;42.654;23.370;2023-06-19T10:20:19;5.65;;;3.78;;
36931;SDS011;22847;42.654;23.370;2023-06-19T10:25:23;4.75;;;3.60;;
36931;SDS011;22847;42.654;23.370;2023-06-19T10:27:52;6.15;;;4.05;;
36931;SDS011;22847;42.654;23.370;2023-06-19T10:30:18;3.85;;;3.40;;
36931;SDS011;22847;42.654;23.370;2023-06-19T10:32:45;5.32;;;4.38;;
36931;SDS011;22847;42.654;23.370;2023-06-19T10:35:14;4.70;;;3.60;;
36931;SDS011;22847;42.654;23.370;2023-06-19T10:37:41;7.07;;;4.05;;
36931;SDS011;22847;42.654;23.370;2023-06-19T10:40:07;8.20;;;3.70;;
36931;SDS011;22847;42.654;23.370;2023-06-19T10:42:35;4.32;;;3.92;;
36931;SDS011;22847;42.654;23.370;2023-06-19T10:45:05;6.15;;;3.88;;
36931;SDS011;22847;42.654;23.370;2023-06-19T10:47:32;6.60;;;4.15;;
36931;SDS011;22847;42.654;23.370;2023-06-19T10:49:58;5.57;;;4.03;;
36931;SDS011;22847;42.654;23.370;2023-06-19T10:52:24;6.25;;;4.15;;
36931;SDS011;22847;42.654;23.370;2023-06-19T10:54:56;15.43;;;4.55;;
36931;SDS011;22847;42.654;23.370;2023-06-19T10:57:28;4.53;;;3.58;;
36931;SDS011;22847;42.654;23.370;2023-06-19T10:59:54;4.72;;;3.63;;
36931;SDS011;22847;42.654;23.370;2023-06-19T11:02:20;7.00;;;4.15;;
36931;SDS011;22847;42.654;23.370;2023-06-19T11:04:46;5.63;;;3.90;;
36931;SDS011;22847;42.654;23.370;2023-06-19T11:07:12;5.85;;;4.13;;
36931;SDS011;22847;42.654;23.370;2023-06-19T11:09:37;6.55;;;4.03;;
36931;SDS011;22847;42.654;23.370;2023-06-19T11:12:03;5.63;;;4.13;;
36931;SDS011;22847;42.654;23.370;2023-06-19T11:14:32;5.53;;;4.13;;
36931;SDS011;22847;42.654;23.370;2023-06-19T11:17:04;6.05;;;4.22;;
36931;SDS011;22847;42.654;23.370;2023-06-19T11:19:32;6.13;;;4.30;;
36931;SDS011;22847;42.654;23.370;2023-06-19T11:21:58;6.50;;;4.57;;
36931;SDS011;22847;42.654;23.370;2023-06-19T11:24:28;12.25;;;6.15;;
36931;SDS011;22847;42.654;23.370;2023-06-19T11:26:55;6.90;;;4.50;;
36931;SDS011;22847;42.654;23.370;2023-06-19T11:29:25;11.07;;;5.50;;
36931;SDS011;22847;42.654;23.370;2023-06-19T11:32:03;10.10;;;5.47;;
36931;SDS011;22847;42.654;23.370;2023-06-19T11:34:31;7.88;;;4.55;;
36931;SDS011;22847;42.654;23.370;2023-06-19T11:36:58;6.07;;;4.85;;
36931;SDS011;22847;42.654;23.370;2023-06-19T11:39:23;4.75;;;4.25;;
36931;SDS011;22847;42.654;23.370;2023-06-19T11:41:49;6.40;;;5.28;;
36931;SDS011;22847;42.654;23.370;2023-06-19T11:44:15;6.55;;;4.80;;
36931;SDS011;22847;42.654;23.370;2023-06-19T11:46:41;9.23;;;4.40;;
36931;SDS011;22847;42.654;23.370;2023-06-19T11:49:11;7.55;;;4.70;;
36931;SDS011;22847;42.654;23.370;2023-06-19T11:51:42;9.80;;;4.70;;
36931;SDS011;22847;42.654;23.370;2023-06-19T11:54:09;10.65;;;4.70;;
36931;SDS011;22847;42.654;23.370;2023-06-19T11:56:36;8.05;;;4.53;;
36931;SDS011;22847;42.654;23.370;2023-06-19T11:59:03;8.07;;;4.63;;
36931;SDS011;22847;42.654;23.370;2023-06-19T12:01:29;6.65;;;5.20;;
36931;SDS011;22847;42.654;23.370;2023-06-19T12:03:55;10.65;;;5.10;;
36931;SDS011;22847;42.654;23.370;2023-06-19T12:06:21;7.45;;;5.35;;
36931;SDS011;22847;42.654;23.370;2023-06-19T12:08:46;7.85;;;4.80;;
36931;SDS011;22847;42.654;23.370;2023-06-19T12:11:12;6.75;;;4.68;;
36931;SDS011;22847;42.654;23.370;2023-06-19T12:13:39;14.05;;;5.15;;
36931;SDS011;22847;42.654;23.370;2023-06-19T12:16:05;9.10;;;5.55;;
36931;SDS011;22847;42.654;23.370;2023-06-19T12:18:32;6.25;;;5.05;;
36931;SDS011;22847;42.654;23.370;2023-06-19T12:20:57;6.13;;;5.03;;
36931;SDS011;22847;42.654;23.370;2023-06-19T12:23:22;6.60;;;5.05;;
36931;SDS011;22847;42.654;23.370;2023-06-19T12:25:48;6.60;;;5.78;;
36931;SDS011;22847;42.654;23.370;2023-06-19T12:28:13;9.23;;;5.32;;
36931;SDS011;22847;42.654;23.370;2023-06-19T12:30:43;5.82;;;4.50;;
36931;SDS011;22847;42.654;23.370;2023-06-19T12:33:09;5.78;;;4.55;;
36931;SDS011;22847;42.654;23.370;2023-06-19T12:35:36;6.90;;;4.10;;
36931;SDS011;22847;42.654;23.370;2023-06-19T12:38:05;10.98;;;5.32;;
36931;SDS011;22847;42.654;23.370;2023-06-19T12:40:31;9.73;;;5.28;;
36931;SDS011;22847;42.654;23.370;2023-06-19T12:42:56;9.68;;;6.55;;
36931;SDS011;22847;42.654;23.370;2023-06-19T12:45:22;10.52;;;4.90;;
36931;SDS011;22847;42.654;23.370;2023-06-19T12:47:48;8.27;;;5.07;;
36931;SDS011;22847;42.654;23.370;2023-06-19T12:50:13;7.03;;;5.28;;
36931;SDS011;22847;42.654;23.370;2023-06-19T12:52:38;9.15;;;4.72;;
36931;SDS011;22847;42.654;23.370;2023-06-19T12:55:04;8.45;;;5.20;;
36931;SDS011;22847;42.654;23.370;2023-06-19T12:57:29;7.40;;;4.90;;
36931;SDS011;22847;42.654;23.370;2023-06-19T12:59:55;6.93;;;4.50;;
36931;SDS011;22847;42.654;23.370;2023-06-19T13:02:20;7.10;;;4.50;;
36931;SDS011;22847;42.654;23.370;2023-06-19T13:04:46;6.60;;;4.40;;
36931;SDS011;22847;42.654;23.370;2023-06-19T13:07:11;12.45;;;4.97;;
36931;SDS011;22847;42.654;23.370;2023-06-19T13:09:37;5.97;;;4.60;;
36931;SDS011;22847;42.654;23.370;2023-06-19T13:12:03;6.38;;;4.85;;
36931;SDS011;22847;42.654;23.370;2023-06-19T13:14:28;6.22;;;4.45;;
36931;SDS011;22847;42.654;23.370;2023-06-19T13:16:54;7.03;;;4.60;;
36931;SDS011;22847;42.654;23.370;2023-06-19T13:19:19;7.70;;;4.60;;
36931;SDS011;22847;42.654;23.370;2023-06-19T13:21:45;6.88;;;4.60;;
36931;SDS011;22847;42.654;23.370;2023-06-19T13:24:10;7.60;;;5.32;;
36931;SDS011;22847;42.654;23.370;2023-06-19T13:26:36;7.63;;;4.75;;
36931;SDS011;22847;42.654;23.370;2023-06-19T13:29:01;7.68;;;4.65;;
36931;SDS011;22847;42.654;23.370;2023-06-19T13:31:27;10.25;;;5.20;;
36931;SDS011;22847;42.654;23.370;2023-06-19T13:33:53;5.75;;;4.78;;
36931;SDS011;22847;42.654;23.370;2023-06-19T13:36:18;10.05;;;5.13;;
36931;SDS011;22847;42.654;23.370;2023-06-19T13:38:44;8.52;;;4.50;;
36931;SDS011;22847;42.654;23.370;2023-06-19T13:41:11;5.20;;;4.40;;
36931;SDS011;22847;42.654;23.370;2023-06-19T13:43:37;6.40;;;4.32;;
36931;SDS011;22847;42.654;23.370;2023-06-19T13:46:05;6.78;;;4.00;;
36931;SDS011;22847;42.654;23.370;2023-06-19T13:48:31;6.20;;;4.50;;
36931;SDS011;22847;42.654;23.370;2023-06-19T13:50:56;5.43;;;4.32;;
36931;SDS011;22847;42.654;23.370;2023-06-19T13:53:24;5.75;;;4.88;;
36931;SDS011;22847;42.654;23.370;2023-06-19T13:55:50;10.80;;;4.93;;
36931;SDS011;22847;42.654;23.370;2023-06-19T13:58:15;8.48;;;4.57;;
36931;SDS011;22847;42.654;23.370;2023-06-19T14:00:41;6.55;;;4.60;;
36931;SDS011;22847;42.654;23.370;2023-06-19T14:03:06;6.70;;;4.55;;
36931;SDS011;22847;42.654;23.370;2023-06-19T14:05:32;6.93;;;4.68;;
36931;SDS011;22847;42.654;23.370;2023-06-19T14:07:58;9.05;;;4.43;;
36931;SDS011;22847;42.654;23.370;2023-06-19T14:10:24;5.90;;;4.40;;
36931;SDS011;22847;42.654;23.370;2023-06-19T14:12:49;6.20;;;4.50;;
36931;SDS011;22847;42.654;23.370;2023-06-19T14:15:15;12.25;;;4.70;;
36931;SDS011;22847;42.654;23.370;2023-06-19T14:17:40;9.05;;;4.57;;
36931;SDS011;22847;42.654;23.370;2023-06-19T14:20:07;17.30;;;5.10;;
36931;SDS011;22847;42.654;23.370;2023-06-19T14:22:34;12.15;;;5.25;;
36931;SDS011;22847;42.654;23.370;2023-06-19T14:24:59;13.77;;;4.90;;
36931;SDS011;22847;42.654;23.370;2023-06-19T14:27:27;9.70;;;4.70;;
36931;SDS011;22847;42.654;23.370;2023-06-19T14:29:55;8.27;;;4.70;;
36931;SDS011;22847;42.654;23.370;2023-06-19T14:32:21;8.50;;;4.60;;
36931;SDS011;22847;42.654;23.370;2023-06-19T14:34:48;8.43;;;5.07;;
36931;SDS011;22847;42.654;23.370;2023-06-19T14:37:13;15.20;;;5.65;;
36931;SDS011;22847;42.654;23.370;2023-06-19T14:39:39;9.30;;;4.88;;
36931;SDS011;22847;42.654;23.370;2023-06-19T14:42:05;9.60;;;5.07;;
36931;SDS011;22847;42.654;23.370;2023-06-19T14:44:30;7.85;;;4.85;;